createdAt,value
2022-11-25T00:01:33.506Z,3.30
2022-11-25T00:04:00.024Z,3.30
2022-11-25T00:06:28.438Z,3.30
2022-11-25T00:09:10.204Z,3.40
2022-11-25T00:11:39.879Z,3.30
2022-11-25T00:14:06.858Z,3.40
2022-11-25T00:16:33.083Z,3.30
2022-11-25T00:18:59.775Z,3.30
2022-11-25T00:21:27.969Z,3.70
2022-11-25T00:24:05.083Z,3.40
2022-11-25T00:26:34.581Z,3.20
2022-11-25T00:29:02.591Z,3.30
2022-11-25T00:31:30.915Z,3.37
2022-11-25T00:33:57.768Z,3.20
2022-11-25T00:36:31.529Z,3.20
2022-11-25T00:38:59.424Z,3.20
2022-11-25T00:41:44.859Z,3.20
2022-11-25T00:44:31.298Z,3.10
2022-11-25T00:46:57.549Z,3.30
2022-11-25T00:49:23.705Z,3.20
2022-11-25T00:51:49.932Z,3.20
2022-11-25T00:54:16.087Z,3.03
2022-11-25T00:56:42.279Z,3.10
2022-11-25T00:59:08.428Z,3.23
2022-11-25T01:01:35.623Z,3.30
2022-11-25T01:04:02.604Z,3.00
2022-11-25T01:06:29.218Z,3.10
2022-11-25T01:08:57.878Z,3.20
2022-11-25T01:11:24.075Z,3.00
2022-11-25T01:13:50.275Z,3.20
2022-11-25T01:16:18.210Z,2.90
2022-11-25T01:18:44.604Z,2.90
2022-11-25T01:21:16.473Z,3.00
2022-11-25T01:23:42.799Z,2.90
2022-11-25T01:26:13.441Z,3.10
2022-11-25T01:28:40.240Z,3.30
2022-11-25T01:31:10.510Z,3.25
2022-11-25T01:33:36.764Z,3.03
2022-11-25T01:36:08.524Z,3.00
2022-11-25T01:38:35.325Z,3.10
2022-11-25T01:41:01.598Z,3.00
2022-11-25T01:43:27.942Z,3.12
2022-11-25T01:48:44.024Z,3.20
2022-11-25T01:51:29.267Z,2.80
2022-11-25T01:54:00.720Z,3.10
2022-11-25T01:56:27.058Z,3.20
2022-11-25T01:58:53.776Z,3.25
2022-11-25T02:01:21.359Z,3.20
2022-11-25T02:03:49.103Z,3.10
2022-11-25T02:06:39.944Z,3.00
2022-11-25T02:09:07.146Z,3.12
2022-11-25T02:11:37.708Z,3.17
2022-11-25T02:14:03.874Z,2.97
2022-11-25T02:16:30.600Z,2.90
2022-11-25T02:18:57.787Z,3.05
2022-11-25T02:21:45.600Z,3.00
2022-11-25T02:24:26.595Z,3.10
2022-11-25T02:26:52.708Z,3.05
2022-11-25T02:29:19.931Z,3.20
2022-11-25T02:31:51.777Z,3.30
2022-11-25T02:34:18.398Z,3.28
2022-11-25T02:36:44.573Z,3.60
2022-11-25T02:39:10.811Z,3.43
2022-11-25T02:41:45.034Z,3.80
2022-11-25T02:44:11.203Z,3.30
2022-11-25T02:46:37.380Z,3.40
2022-11-25T02:49:10.996Z,3.50
2022-11-25T02:51:39.302Z,3.50
2022-11-25T02:54:05.631Z,3.47
2022-11-25T02:56:33.586Z,3.58
2022-11-25T02:58:59.778Z,3.37
2022-11-25T03:01:26.743Z,3.58
2022-11-25T03:03:53.340Z,3.92
2022-11-25T03:06:19.501Z,4.50
2022-11-25T03:08:45.643Z,4.35
2022-11-25T03:11:11.864Z,4.87
2022-11-25T03:13:37.981Z,5.87
2022-11-25T03:16:04.651Z,6.60
2022-11-25T03:18:30.841Z,6.22
2022-11-25T03:20:56.997Z,5.83
2022-11-25T03:23:23.134Z,5.90
2022-11-25T03:25:49.797Z,6.07
2022-11-25T03:28:15.927Z,5.37
2022-11-25T03:30:42.782Z,5.12
2022-11-25T03:33:09.058Z,5.60
2022-11-25T03:35:35.641Z,6.43
2022-11-25T03:38:01.807Z,5.40
2022-11-25T03:40:29.114Z,5.80
2022-11-25T03:42:55.621Z,6.37
2022-11-25T03:45:21.895Z,5.10
2022-11-25T03:47:48.693Z,5.70
2022-11-25T03:50:15.957Z,4.95
2022-11-25T03:52:42.125Z,5.07
2022-11-25T03:55:08.754Z,4.97
2022-11-25T03:57:34.904Z,5.40
2022-11-25T04:00:01.614Z,5.10
2022-11-25T04:02:28.399Z,5.07
2022-11-25T04:04:54.592Z,5.43
2022-11-25T04:07:20.807Z,5.00
2022-11-25T04:09:47.018Z,4.70
2022-11-25T04:12:31.599Z,5.50
2022-11-25T04:14:57.775Z,5.37
2022-11-25T04:17:23.902Z,5.68
2022-11-25T04:19:50.191Z,5.35
2022-11-25T04:22:16.601Z,5.37
2022-11-25T04:24:42.874Z,5.18
2022-11-25T04:27:09.036Z,5.18
2022-11-25T04:29:35.323Z,4.85
2022-11-25T04:32:01.522Z,5.30
2022-11-25T04:34:27.695Z,4.93
2022-11-25T04:36:53.814Z,5.43
2022-11-25T04:39:20.076Z,5.00
2022-11-25T04:41:46.242Z,4.70
2022-11-25T04:44:12.920Z,4.78
2022-11-25T04:46:41.554Z,5.10
2022-11-25T04:49:08.045Z,4.80
2022-11-25T04:51:34.218Z,5.00
2022-11-25T04:54:00.360Z,4.78
2022-11-25T04:56:26.562Z,5.00
2022-11-25T04:59:11.162Z,4.83
2022-11-25T05:01:37.861Z,5.20
2022-11-25T05:04:04.443Z,4.97
2022-11-25T05:06:30.877Z,4.87
2022-11-25T05:08:57.009Z,4.80
2022-11-25T05:11:23.142Z,5.20
2022-11-25T05:13:49.292Z,5.03
2022-11-25T05:16:15.584Z,5.23
2022-11-25T05:18:41.737Z,4.80
2022-11-25T05:21:07.898Z,5.12
2022-11-25T05:23:34.042Z,5.07
2022-11-25T05:26:01.363Z,5.35
2022-11-25T05:28:28.376Z,4.85
2022-11-25T05:30:54.637Z,4.95
2022-11-25T05:33:20.843Z,4.65
2022-11-25T05:35:57.881Z,4.40
2022-11-25T05:38:24.046Z,4.37
2022-11-25T05:40:50.885Z,4.17
2022-11-25T05:43:17.185Z,4.40
2022-11-25T05:45:43.393Z,4.60
2022-11-25T05:48:09.555Z,4.28
2022-11-25T05:50:37.462Z,4.50
2022-11-25T05:53:04.862Z,4.80
2022-11-25T05:55:32.207Z,4.80
2022-11-25T05:57:58.959Z,4.35
2022-11-25T06:00:26.863Z,4.28
2022-11-25T06:02:53.364Z,4.30
2022-11-25T06:05:20.114Z,4.25
2022-11-25T06:07:46.334Z,4.00
2022-11-25T06:10:12.640Z,4.07
2022-11-25T06:12:38.776Z,4.45
2022-11-25T06:15:06.763Z,4.20
2022-11-25T06:17:32.913Z,4.45
2022-11-25T06:19:59.089Z,4.40
2022-11-25T06:22:27.517Z,4.33
2022-11-25T06:25:00.325Z,4.35
2022-11-25T06:27:43.946Z,4.07
2022-11-25T06:30:23.571Z,3.90
2022-11-25T06:32:49.993Z,4.30
2022-11-25T06:35:16.308Z,4.40
2022-11-25T06:37:42.488Z,4.70
2022-11-25T06:40:09.799Z,4.78
2022-11-25T06:42:37.720Z,4.10
2022-11-25T06:45:04.515Z,4.17
2022-11-25T06:47:30.746Z,3.80
2022-11-25T06:49:57.749Z,3.67
2022-11-25T06:52:23.952Z,3.60
2022-11-25T06:54:51.285Z,3.55
2022-11-25T06:57:18.050Z,3.30
2022-11-25T06:59:44.495Z,3.50
2022-11-25T07:02:13.744Z,3.47
2022-11-25T07:04:40.774Z,3.50
2022-11-25T07:07:07.465Z,3.35
2022-11-25T07:09:34.086Z,3.40
2022-11-25T07:12:00.282Z,3.30
2022-11-25T07:14:27.117Z,4.10
2022-11-25T07:16:54.819Z,3.50
2022-11-25T07:19:20.962Z,3.50
2022-11-25T07:21:47.412Z,3.20
2022-11-25T07:24:14.923Z,3.40
2022-11-25T07:26:42.111Z,3.20
2022-11-25T07:29:51.932Z,3.30
2022-11-25T07:32:24.765Z,3.10
2022-11-25T07:34:51.092Z,2.90
2022-11-25T07:37:17.871Z,3.00
2022-11-25T07:39:44.048Z,2.80
2022-11-25T07:42:11.345Z,2.73
2022-11-25T07:44:37.625Z,2.78
2022-11-25T07:47:03.995Z,2.73
2022-11-25T07:49:30.612Z,2.72
2022-11-25T07:52:02.397Z,2.80
2022-11-25T07:54:28.609Z,2.78
2022-11-25T07:56:54.919Z,3.00
2022-11-25T07:59:21.814Z,3.00
2022-11-25T08:01:51.875Z,3.00
2022-11-25T08:04:20.503Z,3.20
2022-11-25T08:06:48.391Z,3.10
2022-11-25T08:09:18.456Z,3.08
2022-11-25T08:11:44.826Z,3.30
2022-11-25T08:14:12.585Z,3.10
2022-11-25T08:16:39.535Z,3.10
2022-11-25T08:19:09.106Z,3.30
2022-11-25T08:21:35.349Z,3.53
2022-11-25T08:24:02.478Z,3.20
2022-11-25T08:26:31.136Z,3.40
2022-11-25T08:28:57.987Z,3.62
2022-11-25T08:31:26.305Z,3.25
2022-11-25T08:33:53.538Z,3.30
2022-11-25T08:36:20.049Z,3.72
2022-11-25T08:38:48.673Z,3.60
2022-11-25T08:41:26.357Z,3.80
2022-11-25T08:43:52.698Z,3.97
2022-11-25T08:46:20.980Z,3.78
2022-11-25T08:48:47.468Z,3.70
2022-11-25T08:51:18.546Z,3.83
2022-11-25T08:53:45.590Z,3.72
2022-11-25T08:56:12.079Z,3.53
2022-11-25T08:58:38.460Z,3.60
2022-11-25T09:01:05.671Z,3.35
2022-11-25T09:03:36.233Z,3.30
2022-11-25T09:06:02.958Z,3.45
2022-11-25T09:08:30.676Z,3.33
2022-11-25T09:10:58.874Z,3.35
2022-11-25T09:13:25.189Z,3.17
2022-11-25T09:15:51.487Z,3.30
2022-11-25T09:18:20.181Z,3.42
2022-11-25T09:20:47.106Z,3.30
2022-11-25T09:23:13.335Z,3.17
2022-11-25T09:25:40.850Z,3.20
2022-11-25T09:28:07.403Z,3.15
2022-11-25T09:30:33.555Z,3.62
2022-11-25T09:32:59.884Z,3.12
2022-11-25T09:35:26.578Z,3.10
2022-11-25T09:37:52.751Z,3.20
2022-11-25T09:42:30.297Z,3.15
2022-11-25T09:45:38.332Z,2.75
2022-11-25T09:55:02.899Z,3.00
2022-11-25T09:58:25.820Z,2.92
2022-11-25T10:00:51.988Z,2.90
2022-11-25T10:03:44.394Z,3.20
2022-11-25T10:06:18.562Z,2.90
2022-11-25T10:08:55.206Z,2.80
2022-11-25T10:11:39.603Z,2.78
2022-11-25T10:14:17.927Z,2.80
2022-11-25T10:20:20.571Z,2.80
2022-11-25T10:22:48.780Z,2.62
2022-11-25T10:25:22.878Z,2.80
2022-11-25T10:28:35.823Z,2.60
2022-11-25T10:31:25.965Z,2.70
2022-11-25T10:33:54.630Z,2.80
2022-11-25T10:36:54.241Z,2.50
2022-11-25T10:39:24.100Z,2.40
2022-11-25T10:42:07.467Z,2.70
2022-11-25T10:44:37.772Z,2.65
2022-11-25T10:54:10.419Z,2.65
2022-11-25T10:56:52.625Z,2.40
2022-11-25T10:59:40.354Z,2.60
2022-11-25T11:02:38.291Z,2.60
2022-11-25T11:05:25.278Z,2.58
2022-11-25T11:08:40.858Z,2.78
2022-11-25T11:11:21.196Z,2.55
2022-11-25T11:13:48.724Z,2.90
2022-11-25T11:16:27.849Z,2.53
2022-11-25T11:18:55.488Z,2.50
2022-11-25T11:21:24.684Z,2.50
2022-11-25T11:23:52.822Z,2.58
2022-11-25T11:26:35.532Z,2.62
2022-11-25T11:29:14.201Z,2.50
2022-11-25T11:31:46.908Z,2.70
2022-11-25T11:37:54.739Z,2.87
2022-11-25T11:40:43.608Z,2.40
2022-11-25T11:46:32.590Z,2.35
2022-11-25T11:50:25.993Z,2.40
2022-11-25T11:53:09.892Z,2.30
2022-11-25T11:56:35.984Z,2.40
2022-11-25T12:04:32.678Z,2.50
2022-11-25T12:07:19.868Z,2.30
2022-11-25T12:11:18.711Z,2.58
2022-11-25T12:14:01.199Z,2.55
2022-11-25T12:16:31.841Z,2.62
2022-11-25T12:19:27.553Z,2.60
2022-11-25T12:22:06.935Z,2.67
2022-11-25T12:25:00.225Z,2.60
2022-11-25T12:27:48.241Z,2.70
2022-11-25T12:30:19.066Z,2.60
2022-11-25T12:35:41.247Z,2.83
2022-11-25T12:45:12.131Z,2.60
2022-11-25T12:47:38.465Z,2.40
2022-11-25T12:50:06.776Z,2.60
2022-11-25T12:52:54.882Z,2.72
2022-11-25T12:55:25.447Z,2.95
2022-11-25T12:58:29.168Z,2.60
2022-11-25T13:01:32.927Z,2.80
2022-11-25T13:05:39.056Z,2.60
2022-11-25T13:08:25.948Z,2.50
2022-11-25T13:11:03.488Z,2.70
2022-11-25T13:13:53.643Z,2.92
2022-11-25T13:16:21.238Z,2.62
2022-11-25T13:18:47.989Z,2.70
2022-11-25T13:21:14.674Z,2.70
2022-11-25T13:23:52.232Z,2.80
2022-11-25T13:26:36.871Z,2.55
2022-11-25T13:30:29.141Z,2.60
2022-11-25T13:32:55.371Z,2.40
2022-11-25T13:35:31.187Z,2.50
2022-11-25T13:37:58.908Z,2.50
2022-11-25T13:40:44.931Z,2.50
2022-11-25T13:43:21.314Z,2.50
2022-11-25T13:45:49.414Z,2.60
2022-11-25T13:48:24.070Z,2.50
2022-11-25T13:54:08.779Z,2.50
2022-11-25T13:56:36.078Z,2.40
2022-11-25T14:01:40.516Z,2.30
2022-11-25T14:04:07.840Z,2.20
2022-11-25T14:09:50.914Z,2.20
2022-11-25T14:18:44.734Z,2.20
2022-11-25T14:25:09.320Z,2.10
2022-11-25T14:27:37.024Z,2.10
2022-11-25T14:30:07.767Z,2.10
2022-11-25T14:32:50.527Z,2.30
2022-11-25T14:35:22.064Z,2.20
2022-11-25T14:38:17.255Z,2.10
2022-11-25T14:40:59.851Z,2.17
2022-11-25T14:43:26.951Z,2.25
2022-11-25T14:46:16.237Z,2.37
2022-11-25T14:48:43.459Z,2.50
2022-11-25T14:51:10.944Z,2.30
2022-11-25T14:53:48.240Z,2.20
2022-11-25T14:56:20.685Z,2.40
2022-11-25T14:58:48.466Z,2.40
2022-11-25T15:01:19.905Z,2.30
2022-11-25T15:03:48.310Z,2.42
2022-11-25T15:06:15.843Z,2.20
2022-11-25T15:08:43.536Z,2.30
2022-11-25T15:11:15.366Z,2.30
2022-11-25T15:13:43.735Z,2.55
2022-11-25T15:16:25.022Z,2.45
2022-11-25T15:18:55.903Z,2.62
2022-11-25T15:21:27.918Z,2.30
2022-11-25T15:23:54.139Z,2.40
2022-11-25T15:26:24.821Z,2.70
2022-11-25T15:29:40.356Z,2.60
2022-11-25T15:32:10.053Z,2.70
2022-11-25T15:34:38.136Z,2.70
2022-11-25T15:37:04.914Z,2.65
2022-11-25T15:39:31.301Z,2.60
2022-11-25T15:42:05.958Z,2.50
2022-11-25T15:44:46.636Z,2.60
2022-11-25T15:47:27.944Z,2.58
2022-11-25T15:50:28.229Z,2.40
2022-11-25T15:52:56.160Z,2.50
2022-11-25T15:55:36.822Z,2.35
2022-11-25T15:58:07.884Z,2.40
2022-11-25T16:00:34.155Z,2.58
2022-11-25T16:03:00.881Z,2.65
2022-11-25T16:05:37.355Z,2.55
2022-11-25T16:11:44.310Z,2.42
2022-11-25T16:14:27.279Z,2.55
2022-11-25T16:17:11.669Z,2.60
2022-11-25T16:19:42.470Z,2.40
2022-11-25T16:22:18.671Z,2.40
2022-11-25T16:24:55.942Z,2.60
2022-11-25T16:27:28.772Z,2.42
2022-11-25T16:30:11.525Z,2.50
2022-11-25T16:32:37.962Z,2.47
2022-11-25T16:35:20.536Z,2.50
2022-11-25T16:37:49.420Z,2.58
2022-11-25T16:40:16.755Z,2.55
2022-11-25T16:42:45.989Z,2.42
2022-11-25T16:45:20.184Z,2.63
2022-11-25T16:47:46.786Z,2.80
2022-11-25T16:50:16.908Z,3.20
2022-11-25T16:52:43.083Z,2.85
2022-11-25T16:55:09.493Z,2.60
2022-11-25T16:57:35.789Z,2.80
2022-11-25T17:00:07.759Z,2.92
2022-11-25T17:02:35.368Z,2.87
2022-11-25T17:05:24.037Z,2.87
2022-11-25T17:07:50.546Z,3.00
2022-11-25T17:10:17.893Z,2.90
2022-11-25T17:12:45.181Z,2.80
2022-11-25T17:15:19.368Z,3.00
2022-11-25T17:17:47.292Z,3.00
2022-11-25T17:20:16.555Z,2.87
2022-11-25T17:22:43.128Z,2.90
2022-11-25T17:25:14.056Z,2.75
2022-11-25T17:27:41.320Z,2.62
2022-11-25T17:30:18.493Z,2.80
2022-11-25T17:32:45.514Z,2.80
2022-11-25T17:35:18.584Z,2.90
2022-11-25T17:37:45.324Z,3.00
2022-11-25T17:40:12.440Z,2.90
2022-11-25T17:42:40.119Z,2.80
2022-11-25T17:45:12.218Z,2.87
2022-11-25T17:47:38.430Z,2.90
2022-11-25T17:50:26.291Z,2.92
2022-11-25T17:52:53.109Z,2.90
2022-11-25T17:55:21.066Z,2.80
2022-11-25T17:57:50.373Z,3.20
2022-11-25T18:00:19.612Z,3.10
2022-11-25T18:02:46.105Z,2.90
2022-11-25T18:05:15.017Z,3.30
2022-11-25T18:07:43.926Z,2.87
2022-11-25T18:10:16.473Z,2.80
2022-11-25T18:12:44.082Z,2.83
2022-11-25T18:15:43.391Z,2.80
2022-11-25T18:18:21.283Z,2.90
2022-11-25T18:20:47.635Z,3.00
2022-11-25T18:23:13.862Z,2.90
2022-11-25T18:25:40.703Z,3.10
2022-11-25T18:28:07.272Z,2.87
2022-11-25T18:30:35.639Z,2.70
2022-11-25T18:33:04.984Z,2.80
2022-11-25T18:35:36.513Z,3.60
2022-11-25T18:38:04.476Z,3.00
2022-11-25T18:40:32.718Z,3.35
2022-11-25T18:43:03.110Z,3.00
2022-11-25T18:45:36.737Z,3.60
2022-11-25T18:48:37.005Z,3.40
2022-11-25T18:51:03.317Z,3.00
2022-11-25T18:53:29.588Z,3.00
2022-11-25T18:55:56.459Z,2.67
2022-11-25T18:58:25.607Z,3.03
2022-11-25T19:00:52.632Z,2.78
2022-11-25T19:03:24.570Z,2.90
2022-11-25T19:05:51.296Z,3.20
2022-11-25T19:08:18.024Z,3.08
2022-11-25T19:10:44.473Z,3.30
2022-11-25T19:14:21.024Z,69.30
2022-11-25T19:16:47.881Z,53.58
2022-11-25T19:19:15.575Z,4.65
2022-11-25T19:21:41.930Z,10.75
2022-11-25T19:24:12.576Z,42.77
2022-11-25T19:26:41.921Z,60.13
2022-11-25T19:29:11.025Z,51.90
2022-11-25T19:31:37.780Z,62.90
2022-11-25T19:34:04.448Z,44.73
2022-11-25T19:36:31.366Z,31.33
2022-11-25T19:39:00.149Z,16.05
2022-11-25T19:41:27.770Z,17.58
2022-11-25T19:43:55.179Z,3.63
2022-11-25T19:46:52.446Z,3.73
2022-11-25T19:49:20.441Z,2.90
2022-11-25T19:51:48.893Z,2.90
2022-11-25T19:54:17.369Z,2.90
2022-11-25T19:56:44.313Z,2.93
2022-11-25T19:59:10.561Z,2.60
2022-11-25T20:01:39.129Z,2.73
2022-11-25T20:04:06.596Z,52.20
2022-11-25T20:06:34.704Z,6.77
2022-11-25T20:09:07.824Z,3.97
2022-11-25T20:11:36.038Z,69.13
2022-11-25T20:14:03.444Z,3.20
2022-11-25T20:16:36.434Z,3.00
2022-11-25T20:19:03.638Z,2.83
2022-11-25T20:21:33.129Z,2.83
2022-11-25T20:23:59.791Z,2.80
2022-11-25T20:26:36.966Z,2.65
2022-11-25T20:29:15.823Z,2.80
2022-11-25T20:31:42.047Z,2.50
2022-11-25T20:34:09.842Z,2.70
2022-11-25T20:36:36.028Z,2.87
2022-11-25T20:39:02.734Z,3.00
2022-11-25T20:41:29.932Z,2.90
2022-11-25T20:43:56.493Z,2.80
2022-11-25T20:46:25.668Z,2.70
2022-11-25T20:48:56.611Z,2.77
2022-11-25T20:51:23.759Z,2.80
2022-11-25T20:54:02.583Z,2.80
2022-11-25T20:56:29.758Z,2.70
2022-11-25T20:58:56.336Z,2.80
2022-11-25T21:01:23.304Z,2.70
2022-11-25T21:03:49.803Z,2.70
2022-11-25T21:06:22.283Z,2.62
2022-11-25T21:08:49.817Z,2.63
2022-11-25T21:11:17.058Z,2.97
2022-11-25T21:13:43.649Z,2.70
2022-11-25T21:16:11.841Z,3.00
2022-11-25T21:18:38.154Z,3.10
2022-11-25T21:21:09.261Z,8.03
2022-11-25T21:23:36.476Z,2.70
2022-11-25T21:26:40.011Z,2.83
2022-11-25T21:29:06.992Z,2.83
2022-11-25T21:31:33.504Z,11.43
2022-11-25T21:34:00.473Z,3.47
2022-11-25T21:36:28.727Z,3.20
2022-11-25T21:39:03.648Z,31.60
2022-11-25T21:41:29.822Z,34.00
2022-11-25T21:43:56.075Z,35.20
2022-11-25T21:46:26.157Z,18.63
2022-11-25T21:48:52.585Z,14.73
2022-11-25T21:51:24.428Z,7.20
2022-11-25T21:53:51.701Z,3.70
2022-11-25T21:56:28.710Z,12.33
2022-11-25T21:58:55.572Z,21.63
2022-11-25T22:01:22.463Z,16.47
2022-11-25T22:03:48.726Z,11.43
2022-11-25T22:06:20.814Z,7.73
2022-11-25T22:08:47.126Z,4.50
2022-11-25T22:11:14.953Z,3.13
2022-11-25T22:13:41.245Z,3.30
2022-11-25T22:16:09.509Z,15.47
2022-11-25T22:18:36.287Z,18.60
2022-11-25T22:21:02.902Z,22.67
2022-11-25T22:23:29.122Z,6.20
2022-11-25T22:25:56.435Z,3.17
2022-11-25T22:28:25.063Z,3.37
2022-11-25T22:31:02.148Z,4.00
2022-11-25T22:33:33.870Z,8.73
2022-11-25T22:36:00.175Z,8.20
2022-11-25T22:38:27.303Z,18.17
2022-11-25T22:41:03.911Z,16.63
2022-11-25T22:43:46.670Z,21.93
2022-11-25T22:46:13.893Z,8.13
2022-11-25T22:48:40.221Z,4.67
2022-11-25T22:51:09.234Z,15.57
2022-11-25T22:53:37.405Z,14.83
2022-11-25T22:56:04.169Z,13.73
2022-11-25T22:58:30.450Z,5.30
2022-11-25T23:00:56.908Z,7.53
2022-11-25T23:03:26.416Z,3.50
2022-11-25T23:05:53.543Z,4.43
2022-11-25T23:08:22.588Z,4.30
2022-11-25T23:10:49.013Z,3.93
2022-11-25T23:13:16.908Z,4.00
2022-11-25T23:15:46.212Z,4.17
2022-11-25T23:18:15.080Z,4.12
2022-11-25T23:20:41.320Z,4.03
2022-11-25T23:23:21.687Z,3.80
2022-11-25T23:25:48.419Z,3.10
2022-11-25T23:28:15.750Z,3.40
2022-11-25T23:30:54.648Z,3.27
2022-11-25T23:33:41.083Z,3.10
2022-11-25T23:37:29.041Z,3.50
2022-11-25T23:39:55.204Z,3.37
2022-11-25T23:42:22.721Z,3.60
2022-11-25T23:44:49.394Z,3.30
2022-11-25T23:47:20.679Z,4.00
2022-11-25T23:49:50.607Z,4.70
2022-11-25T23:52:27.300Z,5.33
2022-11-25T23:54:53.577Z,4.97
2022-11-25T23:57:24.564Z,5.00
2022-11-25T23:59:50.896Z,4.70
